Flugplatz Bexbach (EDRX)

Hier findest Du alle Informationen zum Flugplatz Bexbach (EDRX).

Informationen für Piloten zum Flugplatz Bexbach

Hier findest Du alle relevanten Informationen, die Du als Pilot benötigst, um Bexbach anzufliegen.

Flugplatz: Bexbach ICAO-Code: EDRX
Frequenz Turm: 123,05 Mhz GAFOR Gebiet: 44
Frequenz Ground: 123,05 Mhz Mogas: ja
Platzrunde: N 2000 ft Landegebühr: 0 €
Platzhöhe: 893 ft Sunrise: 03:44 Uhr UTC
Pisten: 06/24 - 550 m x 30 m, GRAS Sunset: 19:29 Uhr UTC

Flugwetter am Flugplatz Bexbach

Die METAR Information stammen aus EDDR (17.59 km entfernt).

METAR Code:
2024/07/16 17:20
EDDR 161720Z AUTO 26014KT 210V290 9999 FEW047 21/11 Q1016 TEMPO 26015G25KT

Flugschulen am Flugplatz Bexbach

Am Flugplatz Bexbach gibt es leider keine Flugschule.

Benachbarte Flugplätze und Flugschulen

Es gibt 14 weitere Flugplätze in einem Umkreis von 50 km um den Flugplatz Bexbach.

Jetzt anmelden

Passwort vergessen

Umfrage Archiv

Wie häufig haltet Ihr die Halbkreisflugregel ein?

Eher häufig!
36.4 %
Immer!
30.2 %
Hin und wieder!
17.1 %
Nie!
9.5 %
Eher selten!
6.9 %
Stimmen: 275 | Diskussion
Anzeige: Roland Aircraft
Statistik Alle Mitglieder

Aktuell sind 15 Besucher online, davon 2 Mitglieder und 13 Gäste.


Mitglieder online:
mikemike  b3nn0 

Anzeige: EasyVFR